SAS1470 EKCH-ENGM
Flight info
| Callsign | SAS1470 |
|---|---|
| Flight time | 0h 54m |
| Altitude | 38000 |
| Route | VEDAR DCT SABAK DCT LUNIP |
| Aircraft | A20N/M-SDE3FGIJ1RWXY/ALB1 |
Departure
| Time | 2026-05-07 17:51 |
|---|---|
| Airport | Copenhagen Kastrup Airport (EKCH) |
Arrival
| Time | 2026-05-07 18:46 |
|---|---|
| Airport | Oslo-Gardermoen International Airport (ENGM) |
| Time | Latitude | Longitude | Altitude | Speed | Heading |
|---|---|---|---|---|---|
| 2026-05-07 17:17 | 55.62698 | 12.64581 | 26 ft | 0 kts | 281° |
| 2026-05-07 17:41 | 55.62696 | 12.64599 | 26 ft | 2 kts | 281° |
| 2026-05-07 17:41 | 55.62693 | 12.64625 | 26 ft | 2 kts | 281° |
| 2026-05-07 17:41 | 55.62690 | 12.64650 | 26 ft | 2 kts | 281° |
| 2026-05-07 17:41 | 55.62688 | 12.64667 | 26 ft | 1 kts | 282° |
| 2026-05-07 17:42 | 55.62689 | 12.64681 | 26 ft | 1 kts | 224° |
| 2026-05-07 17:42 | 55.62693 | 12.64687 | 26 ft | 0 kts | 186° |
| 2026-05-07 17:42 | 55.62678 | 12.64678 | 26 ft | 5 kts | 191° |
| 2026-05-07 17:42 | 55.62634 | 12.64662 | 26 ft | 4 kts | 192° |
| 2026-05-07 17:43 | 55.62621 | 12.64657 | 26 ft | 0 kts | 192° |
| 2026-05-07 17:46 | 55.62613 | 12.64654 | 26 ft | 4 kts | 192° |
| 2026-05-07 17:47 | 55.62561 | 12.64649 | 26 ft | 9 kts | 181° |
| 2026-05-07 17:47 | 55.62493 | 12.64657 | 26 ft | 10 kts | 171° |
| 2026-05-07 17:47 | 55.62413 | 12.64673 | 26 ft | 12 kts | 180° |
| 2026-05-07 17:47 | 55.62329 | 12.64659 | 26 ft | 12 kts | 209° |
| 2026-05-07 17:48 | 55.62295 | 12.64584 | 25 ft | 1 kts | 245° |
| 2026-05-07 17:48 | 55.62293 | 12.64575 | 25 ft | 2 kts | 245° |
| 2026-05-07 17:48 | 55.62279 | 12.64522 | 25 ft | 8 kts | 246° |
| 2026-05-07 17:49 | 55.62246 | 12.64397 | 25 ft | 12 kts | 230° |
| 2026-05-07 17:49 | 55.62160 | 12.64311 | 25 ft | 15 kts | 206° |
| 2026-05-07 17:49 | 55.62055 | 12.64221 | 26 ft | 17 kts | 206° |
| 2026-05-07 17:49 | 55.61947 | 12.64134 | 25 ft | 17 kts | 205° |
| 2026-05-07 17:50 | 55.61830 | 12.64072 | 23 ft | 18 kts | 176° |
| 2026-05-07 17:50 | 55.61705 | 12.64087 | 24 ft | 17 kts | 176° |
| 2026-05-07 17:50 | 55.61594 | 12.64023 | 23 ft | 17 kts | 222° |
| 2026-05-07 17:50 | 55.61427 | 12.63762 | 22 ft | 63 kts | 221° |
| 2026-05-07 17:51 | 55.60916 | 12.62969 | 19 ft | 129 kts | 222° |
| 2026-05-07 17:51 | 55.60121 | 12.61743 | 196 ft | 164 kts | 221° |
| 2026-05-07 17:51 | 55.59261 | 12.60448 | 811 ft | 163 kts | 222° |
| 2026-05-07 17:51 | 55.58403 | 12.59143 | 1419 ft | 166 kts | 225° |
| 2026-05-07 17:52 | 55.57553 | 12.57783 | 1959 ft | 169 kts | 231° |
| 2026-05-07 17:52 | 55.57060 | 12.55929 | 2378 ft | 171 kts | 277° |
| 2026-05-07 17:52 | 55.57595 | 12.54127 | 2785 ft | 175 kts | 330° |
| 2026-05-07 17:52 | 55.58787 | 12.53631 | 3148 ft | 190 kts | 357° |
| 2026-05-07 17:53 | 55.60157 | 12.53326 | 3575 ft | 208 kts | 350° |
| 2026-05-07 17:53 | 55.61640 | 12.52742 | 3951 ft | 230 kts | 348° |
| 2026-05-07 17:53 | 55.63248 | 12.52053 | 4459 ft | 248 kts | 348° |
| 2026-05-07 17:53 | 55.65012 | 12.51284 | 5152 ft | 260 kts | 348° |
| 2026-05-07 17:54 | 55.66758 | 12.50522 | 5983 ft | 265 kts | 348° |
| 2026-05-07 17:54 | 55.68546 | 12.49744 | 6835 ft | 270 kts | 349° |
| 2026-05-07 17:54 | 55.70415 | 12.48937 | 7701 ft | 274 kts | 348° |
| 2026-05-07 17:54 | 55.72271 | 12.48136 | 8575 ft | 277 kts | 348° |
| 2026-05-07 17:55 | 55.74149 | 12.47324 | 9452 ft | 280 kts | 348° |
| 2026-05-07 17:55 | 55.76017 | 12.46517 | 10275 ft | 283 kts | 348° |
| 2026-05-07 17:55 | 55.77956 | 12.45677 | 10892 ft | 294 kts | 347° |
| 2026-05-07 17:55 | 55.80032 | 12.44776 | 11298 ft | 312 kts | 347° |
| 2026-05-07 17:56 | 55.82178 | 12.43840 | 11669 ft | 330 kts | 347° |
| 2026-05-07 17:56 | 55.84467 | 12.42843 | 12254 ft | 339 kts | 347° |
| 2026-05-07 17:56 | 55.86762 | 12.41842 | 13010 ft | 343 kts | 346° |
| 2026-05-07 17:56 | 55.89095 | 12.40822 | 13762 ft | 346 kts | 346° |
| 2026-05-07 17:57 | 55.91459 | 12.39786 | 14474 ft | 350 kts | 346° |
| 2026-05-07 17:57 | 55.93080 | 12.39076 | 14953 ft | 352 kts | 346° |
| 2026-05-07 17:57 | 55.96336 | 12.37646 | 15877 ft | 357 kts | 346° |
| 2026-05-07 17:57 | 55.98812 | 12.36558 | 16553 ft | 361 kts | 346° |
| 2026-05-07 17:58 | 56.01263 | 12.35480 | 17199 ft | 365 kts | 345° |
| 2026-05-07 17:58 | 56.03739 | 12.34390 | 17823 ft | 368 kts | 345° |
| 2026-05-07 17:58 | 56.06238 | 12.33289 | 18437 ft | 372 kts | 344° |
| 2026-05-07 17:58 | 56.08769 | 12.32169 | 19047 ft | 375 kts | 345° |
| 2026-05-07 17:59 | 56.11299 | 12.31048 | 19645 ft | 378 kts | 344° |
| 2026-05-07 17:59 | 56.13895 | 12.29897 | 20245 ft | 381 kts | 345° |
| 2026-05-07 17:59 | 56.16529 | 12.28728 | 20829 ft | 385 kts | 345° |
| 2026-05-07 17:59 | 56.19126 | 12.27575 | 21387 ft | 388 kts | 345° |
| 2026-05-07 18:00 | 56.21730 | 12.26418 | 21926 ft | 391 kts | 345° |
| 2026-05-07 18:00 | 56.24381 | 12.25241 | 22468 ft | 393 kts | 345° |
| 2026-05-07 18:00 | 56.27021 | 12.24066 | 22995 ft | 396 kts | 345° |
| 2026-05-07 18:00 | 56.29707 | 12.22867 | 23501 ft | 399 kts | 345° |
| 2026-05-07 18:01 | 56.32428 | 12.21652 | 24001 ft | 402 kts | 345° |
| 2026-05-07 18:01 | 56.35144 | 12.20437 | 24502 ft | 404 kts | 345° |
| 2026-05-07 18:01 | 56.37881 | 12.19210 | 25007 ft | 406 kts | 345° |
| 2026-05-07 18:01 | 56.40642 | 12.17968 | 25484 ft | 409 kts | 345° |
| 2026-05-07 18:02 | 56.46245 | 12.15446 | 26353 ft | 415 kts | 345° |
| 2026-05-07 18:02 | 56.49026 | 12.14192 | 26768 ft | 417 kts | 345° |
| 2026-05-07 18:02 | 56.51884 | 12.12920 | 27166 ft | 420 kts | 346° |
| 2026-05-07 18:03 | 56.54771 | 12.11880 | 27557 ft | 423 kts | 349° |
| 2026-05-07 18:03 | 56.57729 | 12.11011 | 27949 ft | 425 kts | 350° |
| 2026-05-07 18:03 | 56.60700 | 12.10183 | 28355 ft | 427 kts | 350° |
| 2026-05-07 18:03 | 56.63628 | 12.09374 | 28873 ft | 426 kts | 350° |
| 2026-05-07 18:04 | 56.66528 | 12.08569 | 29413 ft | 423 kts | 350° |
| 2026-05-07 18:04 | 56.69430 | 12.07759 | 29898 ft | 422 kts | 350° |
| 2026-05-07 18:04 | 56.72313 | 12.06951 | 30364 ft | 421 kts | 350° |
| 2026-05-07 18:04 | 56.75317 | 12.06106 | 30856 ft | 420 kts | 350° |
| 2026-05-07 18:05 | 56.78272 | 12.05272 | 31313 ft | 419 kts | 350° |
| 2026-05-07 18:05 | 56.81189 | 12.04444 | 31760 ft | 418 kts | 350° |
| 2026-05-07 18:05 | 56.84139 | 12.03606 | 32215 ft | 416 kts | 350° |
| 2026-05-07 18:05 | 56.87038 | 12.02782 | 32642 ft | 415 kts | 350° |
| 2026-05-07 18:06 | 56.89975 | 12.01947 | 33061 ft | 413 kts | 350° |
| 2026-05-07 18:06 | 56.92833 | 12.01133 | 33449 ft | 412 kts | 350° |
| 2026-05-07 18:06 | 56.95718 | 12.00308 | 33828 ft | 411 kts | 350° |
| 2026-05-07 18:06 | 56.98546 | 11.99499 | 34183 ft | 410 kts | 350° |
| 2026-05-07 18:07 | 57.01404 | 11.98682 | 34529 ft | 409 kts | 349° |
| 2026-05-07 18:07 | 57.04244 | 11.97868 | 34870 ft | 407 kts | 350° |
| 2026-05-07 18:07 | 57.07037 | 11.97066 | 35124 ft | 406 kts | 349° |
| 2026-05-07 18:07 | 57.09886 | 11.96246 | 35342 ft | 406 kts | 349° |
| 2026-05-07 18:08 | 57.12711 | 11.95431 | 35530 ft | 407 kts | 349° |
| 2026-05-07 18:08 | 57.15505 | 11.94624 | 35710 ft | 408 kts | 349° |
| 2026-05-07 18:08 | 57.18360 | 11.93799 | 35893 ft | 408 kts | 349° |
| 2026-05-07 18:08 | 57.21159 | 11.92988 | 36063 ft | 409 kts | 349° |
| 2026-05-07 18:09 | 57.23970 | 11.92174 | 36232 ft | 409 kts | 349° |
| 2026-05-07 18:09 | 57.26790 | 11.91356 | 36374 ft | 410 kts | 349° |
| 2026-05-07 18:09 | 57.29606 | 11.90536 | 36489 ft | 411 kts | 349° |
| 2026-05-07 18:09 | 57.32402 | 11.89721 | 36615 ft | 412 kts | 349° |
| 2026-05-07 18:10 | 57.35210 | 11.88901 | 36756 ft | 414 kts | 349° |
| 2026-05-07 18:10 | 57.38043 | 11.88073 | 36899 ft | 415 kts | 349° |
| 2026-05-07 18:10 | 57.40926 | 11.87227 | 37034 ft | 416 kts | 349° |
| 2026-05-07 18:10 | 57.43740 | 11.86402 | 37171 ft | 418 kts | 348° |
| 2026-05-07 18:11 | 57.46611 | 11.85559 | 37303 ft | 419 kts | 348° |
| 2026-05-07 18:11 | 57.52384 | 11.83859 | 37555 ft | 421 kts | 348° |
| 2026-05-07 18:11 | 57.55310 | 11.82996 | 37677 ft | 423 kts | 348° |
| 2026-05-07 18:12 | 57.58204 | 11.82140 | 37790 ft | 424 kts | 348° |
| 2026-05-07 18:12 | 57.61115 | 11.81277 | 37908 ft | 425 kts | 348° |
| 2026-05-07 18:12 | 57.64027 | 11.80413 | 38026 ft | 425 kts | 348° |
| 2026-05-07 18:13 | 57.69945 | 11.78655 | 38099 ft | 427 kts | 348° |
| 2026-05-07 18:13 | 57.75843 | 11.76897 | 38103 ft | 428 kts | 348° |
| 2026-05-07 18:14 | 57.81879 | 11.75091 | 38105 ft | 428 kts | 348° |
| 2026-05-07 18:14 | 57.87915 | 11.73277 | 38106 ft | 428 kts | 348° |
| 2026-05-07 18:15 | 57.93973 | 11.71451 | 38100 ft | 429 kts | 348° |
| 2026-05-07 18:15 | 57.99974 | 11.69638 | 38099 ft | 429 kts | 348° |
| 2026-05-07 18:16 | 58.06005 | 11.67806 | 38097 ft | 428 kts | 348° |
| 2026-05-07 18:16 | 58.11901 | 11.66011 | 38088 ft | 428 kts | 347° |
| 2026-05-07 18:17 | 58.17766 | 11.64218 | 38087 ft | 428 kts | 347° |
| 2026-05-07 18:17 | 58.23616 | 11.62379 | 38088 ft | 428 kts | 347° |
| 2026-05-07 18:18 | 58.29528 | 11.60497 | 38086 ft | 427 kts | 347° |
| 2026-05-07 18:18 | 58.35439 | 11.58609 | 38088 ft | 428 kts | 347° |
| 2026-05-07 18:19 | 58.41249 | 11.56753 | 38084 ft | 427 kts | 347° |
| 2026-05-07 18:19 | 58.47124 | 11.54871 | 38083 ft | 427 kts | 347° |
| 2026-05-07 18:20 | 58.52972 | 11.52984 | 37692 ft | 433 kts | 347° |
| 2026-05-07 18:20 | 58.55923 | 11.52030 | 37008 ft | 437 kts | 347° |
| 2026-05-07 18:20 | 58.58957 | 11.51051 | 36463 ft | 435 kts | 347° |
| 2026-05-07 18:20 | 58.61903 | 11.50100 | 36082 ft | 431 kts | 347° |
| 2026-05-07 18:21 | 58.64869 | 11.49140 | 35622 ft | 428 kts | 347° |
| 2026-05-07 18:21 | 58.67846 | 11.48174 | 35151 ft | 425 kts | 347° |
| 2026-05-07 18:21 | 58.70779 | 11.47219 | 34600 ft | 422 kts | 346° |
| 2026-05-07 18:21 | 58.73658 | 11.46282 | 33930 ft | 421 kts | 346° |
| 2026-05-07 18:22 | 58.76546 | 11.45337 | 33152 ft | 422 kts | 346° |
| 2026-05-07 18:22 | 58.78449 | 11.44715 | 32522 ft | 421 kts | 346° |
| 2026-05-07 18:22 | 58.82266 | 11.43462 | 30817 ft | 424 kts | 346° |
| 2026-05-07 18:22 | 58.85160 | 11.42510 | 30013 ft | 421 kts | 346° |
| 2026-05-07 18:23 | 58.88008 | 11.41575 | 29338 ft | 419 kts | 346° |
| 2026-05-07 18:23 | 58.90880 | 11.40630 | 28619 ft | 420 kts | 346° |
| 2026-05-07 18:23 | 58.93775 | 11.39673 | 27885 ft | 420 kts | 346° |
| 2026-05-07 18:23 | 58.96666 | 11.38715 | 27371 ft | 415 kts | 346° |
| 2026-05-07 18:24 | 58.99507 | 11.37777 | 26889 ft | 410 kts | 346° |
| 2026-05-07 18:24 | 59.02369 | 11.36828 | 26381 ft | 406 kts | 346° |
| 2026-05-07 18:24 | 59.05155 | 11.35903 | 25972 ft | 399 kts | 346° |
| 2026-05-07 18:24 | 59.07882 | 11.35000 | 25758 ft | 387 kts | 346° |
| 2026-05-07 18:25 | 59.10485 | 11.34135 | 25544 ft | 376 kts | 345° |
| 2026-05-07 18:25 | 59.13047 | 11.33280 | 25392 ft | 364 kts | 345° |
| 2026-05-07 18:25 | 59.15509 | 11.32466 | 25193 ft | 355 kts | 346° |
| 2026-05-07 18:25 | 59.17967 | 11.32186 | 25052 ft | 350 kts | 357° |
| 2026-05-07 18:26 | 59.20377 | 11.32817 | 24727 ft | 352 kts | 7° |
| 2026-05-07 18:26 | 59.22741 | 11.33746 | 24336 ft | 345 kts | 358° |
| 2026-05-07 18:26 | 59.25155 | 11.33855 | 24032 ft | 339 kts | 353° |
| 2026-05-07 18:26 | 59.27497 | 11.33778 | 23753 ft | 340 kts | 353° |
| 2026-05-07 18:27 | 59.29908 | 11.33740 | 23470 ft | 340 kts | 354° |
| 2026-05-07 18:27 | 59.32287 | 11.33760 | 23200 ft | 340 kts | 354° |
| 2026-05-07 18:27 | 59.34674 | 11.33827 | 22927 ft | 339 kts | 355° |
| 2026-05-07 18:27 | 59.36240 | 11.33888 | 22747 ft | 338 kts | 355° |
| 2026-05-07 18:28 | 59.39342 | 11.34032 | 22392 ft | 336 kts | 355° |
| 2026-05-07 18:28 | 59.41748 | 11.34158 | 22116 ft | 335 kts | 355° |
| 2026-05-07 18:28 | 59.44102 | 11.34289 | 21848 ft | 333 kts | 355° |
| 2026-05-07 18:28 | 59.46507 | 11.34426 | 21508 ft | 332 kts | 355° |
| 2026-05-07 18:29 | 59.48855 | 11.34559 | 21119 ft | 330 kts | 356° |
| 2026-05-07 18:29 | 59.51207 | 11.34697 | 20690 ft | 329 kts | 356° |
| 2026-05-07 18:29 | 59.53519 | 11.34835 | 20273 ft | 328 kts | 356° |
| 2026-05-07 18:29 | 59.55857 | 11.34975 | 19842 ft | 327 kts | 356° |
| 2026-05-07 18:30 | 59.58168 | 11.35112 | 19434 ft | 325 kts | 356° |
| 2026-05-07 18:30 | 59.60434 | 11.35246 | 19035 ft | 323 kts | 356° |
| 2026-05-07 18:30 | 59.62700 | 11.35382 | 18621 ft | 322 kts | 356° |
| 2026-05-07 18:30 | 59.64899 | 11.35512 | 18233 ft | 320 kts | 356° |
| 2026-05-07 18:31 | 59.67130 | 11.35646 | 17844 ft | 318 kts | 356° |
| 2026-05-07 18:31 | 59.69329 | 11.35779 | 17442 ft | 317 kts | 356° |
| 2026-05-07 18:31 | 59.71501 | 11.35909 | 17045 ft | 316 kts | 356° |
| 2026-05-07 18:31 | 59.73746 | 11.36042 | 16641 ft | 314 kts | 357° |
| 2026-05-07 18:32 | 59.75959 | 11.36176 | 16251 ft | 312 kts | 357° |
| 2026-05-07 18:32 | 59.78193 | 11.36310 | 15857 ft | 310 kts | 357° |
| 2026-05-07 18:32 | 59.80363 | 11.36443 | 15474 ft | 309 kts | 357° |
| 2026-05-07 18:32 | 59.82569 | 11.36577 | 15075 ft | 307 kts | 357° |
| 2026-05-07 18:33 | 59.84704 | 11.36706 | 14698 ft | 305 kts | 358° |
| 2026-05-07 18:33 | 59.86831 | 11.36837 | 14331 ft | 303 kts | 358° |
| 2026-05-07 18:33 | 59.88929 | 11.36963 | 13955 ft | 302 kts | 358° |
| 2026-05-07 18:33 | 59.90999 | 11.37089 | 13578 ft | 301 kts | 358° |
| 2026-05-07 18:34 | 59.93089 | 11.37196 | 13189 ft | 299 kts | 358° |
| 2026-05-07 18:34 | 59.95145 | 11.37306 | 12695 ft | 299 kts | 358° |
| 2026-05-07 18:34 | 59.97227 | 11.37434 | 11716 ft | 308 kts | 359° |
| 2026-05-07 18:34 | 59.99376 | 11.37565 | 10777 ft | 316 kts | 360° |
| 2026-05-07 18:35 | 60.01549 | 11.37707 | 10531 ft | 306 kts | 360° |
| 2026-05-07 18:35 | 60.03653 | 11.37847 | 10430 ft | 307 kts | 360° |
| 2026-05-07 18:35 | 60.05821 | 11.37986 | 10293 ft | 316 kts | 360° |
| 2026-05-07 18:35 | 60.08009 | 11.38126 | 10159 ft | 317 kts | 360° |
| 2026-05-07 18:36 | 60.10257 | 11.38270 | 9934 ft | 318 kts | 360° |
| 2026-05-07 18:36 | 60.12456 | 11.38406 | 9518 ft | 316 kts | 0° |
| 2026-05-07 18:36 | 60.14635 | 11.38543 | 9120 ft | 313 kts | 0° |
| 2026-05-07 18:36 | 60.16814 | 11.38680 | 8763 ft | 311 kts | 0° |
| 2026-05-07 18:37 | 60.18971 | 11.38815 | 8401 ft | 309 kts | 0° |
| 2026-05-07 18:37 | 60.21130 | 11.38950 | 8028 ft | 307 kts | 1° |
| 2026-05-07 18:37 | 60.23269 | 11.39080 | 7643 ft | 306 kts | 1° |
| 2026-05-07 18:37 | 60.25377 | 11.39213 | 7286 ft | 305 kts | 1° |
| 2026-05-07 18:38 | 60.27475 | 11.39343 | 6921 ft | 304 kts | 1° |
| 2026-05-07 18:38 | 60.29557 | 11.39473 | 6649 ft | 297 kts | 1° |
| 2026-05-07 18:38 | 60.31631 | 11.39602 | 6312 ft | 293 kts | 1° |
| 2026-05-07 18:38 | 60.33661 | 11.39732 | 5994 ft | 288 kts | 2° |
| 2026-05-07 18:39 | 60.35639 | 11.39856 | 5687 ft | 284 kts | 2° |
| 2026-05-07 18:39 | 60.37596 | 11.39977 | 5395 ft | 276 kts | 1° |
| 2026-05-07 18:39 | 60.39440 | 11.39929 | 5199 ft | 257 kts | 348° |
| 2026-05-07 18:39 | 60.40927 | 11.38354 | 5056 ft | 241 kts | 309° |
| 2026-05-07 18:40 | 60.41610 | 11.35290 | 4791 ft | 240 kts | 272° |
| 2026-05-07 18:40 | 60.41339 | 11.31976 | 4506 ft | 238 kts | 252° |
| 2026-05-07 18:40 | 60.40835 | 11.28797 | 4236 ft | 235 kts | 252° |
| 2026-05-07 18:40 | 60.40321 | 11.25730 | 4075 ft | 226 kts | 239° |
| 2026-05-07 18:41 | 60.39272 | 11.23550 | 3980 ft | 213 kts | 208° |
| 2026-05-07 18:41 | 60.37937 | 11.22440 | 3823 ft | 205 kts | 195° |
| 2026-05-07 18:41 | 60.36623 | 11.21692 | 3915 ft | 191 kts | 193° |
| 2026-05-07 18:41 | 60.35344 | 11.21010 | 3772 ft | 190 kts | 194° |
| 2026-05-07 18:42 | 60.34080 | 11.20317 | 3550 ft | 188 kts | 194° |
| 2026-05-07 18:42 | 60.32824 | 11.19604 | 3298 ft | 188 kts | 195° |
| 2026-05-07 18:42 | 60.31566 | 11.18877 | 3033 ft | 187 kts | 195° |
| 2026-05-07 18:42 | 60.30314 | 11.18149 | 2770 ft | 186 kts | 194° |
| 2026-05-07 18:43 | 60.29082 | 11.17435 | 2516 ft | 185 kts | 195° |
| 2026-05-07 18:43 | 60.27900 | 11.16749 | 2264 ft | 170 kts | 195° |
| 2026-05-07 18:43 | 60.26804 | 11.16113 | 2030 ft | 154 kts | 195° |
| 2026-05-07 18:43 | 60.25834 | 11.15551 | 1820 ft | 140 kts | 194° |
| 2026-05-07 18:44 | 60.24917 | 11.15021 | 1649 ft | 136 kts | 194° |
| 2026-05-07 18:44 | 60.24005 | 11.14494 | 1482 ft | 136 kts | 194° |
| 2026-05-07 18:44 | 60.23103 | 11.13973 | 1309 ft | 136 kts | 195° |
| 2026-05-07 18:44 | 60.22189 | 11.13445 | 1127 ft | 135 kts | 195° |
| 2026-05-07 18:45 | 60.21297 | 11.12929 | 947 ft | 135 kts | 195° |
| 2026-05-07 18:45 | 60.20398 | 11.12405 | 777 ft | 134 kts | 195° |
| 2026-05-07 18:45 | 60.19508 | 11.11885 | 689 ft | 126 kts | 195° |
| 2026-05-07 18:45 | 60.18833 | 11.11502 | 688 ft | 77 kts | 196° |
| 2026-05-07 18:46 | 60.18502 | 11.11263 | 688 ft | 31 kts | 211° |
| 2026-05-07 18:46 | 60.18438 | 11.11073 | 688 ft | 6 kts | 270° |
| 2026-05-07 18:46 | 60.18445 | 11.10987 | 688 ft | 4 kts | 288° |
| 2026-05-07 18:46 | 60.18457 | 11.10914 | 688 ft | 6 kts | 288° |
| 2026-05-07 18:47 | 60.18472 | 11.10815 | 688 ft | 8 kts | 291° |
| 2026-05-07 18:47 | 60.18527 | 11.10759 | 688 ft | 10 kts | 13° |
| 2026-05-07 18:47 | 60.18617 | 11.10826 | 688 ft | 15 kts | 19° |
| 2026-05-07 18:47 | 60.18724 | 11.10886 | 688 ft | 16 kts | 12° |
| 2026-05-07 18:48 | 60.18832 | 11.10945 | 688 ft | 16 kts | 17° |
| 2026-05-07 18:48 | 60.18942 | 11.11008 | 688 ft | 16 kts | 15° |
| 2026-05-07 18:48 | 60.19053 | 11.11070 | 688 ft | 16 kts | 15° |
| 2026-05-07 18:48 | 60.19143 | 11.11116 | 688 ft | 11 kts | 1° |
| 2026-05-07 18:49 | 60.19187 | 11.11002 | 688 ft | 11 kts | 287° |
| 2026-05-07 18:49 | 60.19207 | 11.10837 | 688 ft | 12 kts | 285° |
| 2026-05-07 18:49 | 60.19231 | 11.10667 | 688 ft | 13 kts | 287° |
| 2026-05-07 18:49 | 60.19252 | 11.10523 | 688 ft | 7 kts | 285° |
| 2026-05-07 18:50 | 60.19265 | 11.10423 | 688 ft | 5 kts | 285° |
| 2026-05-07 18:50 | 60.19289 | 11.10397 | 688 ft | 2 kts | 14° |
| 2026-05-07 18:50 | 60.19306 | 11.10409 | 688 ft | 3 kts | 18° |
| 2026-05-07 18:50 | 60.19317 | 11.10415 | 688 ft | 1 kts | 15° |
| 2026-05-07 18:51 | 60.19321 | 11.10418 | 688 ft | 0 kts | 15° |